Time;durP1;ratioP1;P1;durP2;ratioP2;P2;SDS_P1;SDS_P2;PMS_P1;PMS_P2;Temp;Humidity;BMP_temperature;BMP_pressure;BME280_temperature;BME280_humidity;BME280_pressure;Samples;Min_cycle;Max_cycle;Signal;HPM_P1;HPM_P2
2021/06/13 00:01:32;;;;;;;11.82;3.17;;;15.30;75.00;;;;;;5095140;28;20028;-70
2021/06/13 00:03:58;;;;;;;11.45;3.92;;;15.30;74.90;;;;;;5099249;28;20031;-70
2021/06/13 00:06:23;;;;;;;10.57;2.95;;;15.30;74.90;;;;;;5097133;28;20028;-70
2021/06/13 00:08:49;;;;;;;14.80;3.40;;;15.30;75.10;;;;;;5098959;28;20458;-70
2021/06/13 00:11:15;;;;;;;10.20;3.40;;;15.30;74.90;;;;;;5100145;28;20601;-71
2021/06/13 00:13:41;;;;;;;8.13;3.03;;;15.30;75.10;;;;;;5096869;28;20111;-71
2021/06/13 00:16:07;;;;;;;10.35;2.72;;;15.30;75.10;;;;;;5099612;28;20492;-70
2021/06/13 00:18:34;;;;;;;10.93;3.65;;;15.20;75.00;;;;;;5079556;28;20080;-71
2021/06/13 00:20:59;;;;;;;11.70;3.80;;;15.30;75.00;;;;;;5098860;28;20027;-70
2021/06/13 00:23:25;;;;;;;13.77;3.33;;;15.20;74.90;;;;;;5099381;28;20028;-71
2021/06/13 00:25:53;;;;;;;12.32;3.20;;;15.20;74.90;;;;;;5080668;28;20027;-70
2021/06/13 00:28:18;;;;;;;8.82;3.42;;;15.20;74.80;;;;;;5099408;28;20032;-70
2021/06/13 00:30:44;;;;;;;9.75;3.15;;;15.10;75.20;;;;;;5098308;28;20039;-71
2021/06/13 00:33:10;;;;;;;10.07;3.10;;;15.10;74.70;;;;;;5097929;28;20482;-71
2021/06/13 00:35:36;;;;;;;13.43;3.10;;;15.10;74.80;;;;;;5098148;28;20050;-70
2021/06/13 00:38:03;;;;;;;11.55;3.45;;;15.00;75.00;;;;;;5098863;28;20474;-71
2021/06/13 00:40:29;;;;;;;16.70;3.50;;;15.00;75.30;;;;;;5100300;28;20055;-71
2021/06/13 00:42:55;;;;;;;10.68;3.28;;;14.90;75.20;;;;;;5101059;28;20067;-70
2021/06/13 00:45:22;;;;;;;11.63;3.33;;;14.90;75.30;;;;;;5099228;28;20039;-70
2021/06/13 00:47:49;;;;;;;11.45;3.13;;;14.90;75.30;;;;;;5096431;28;20363;-71
2021/06/13 00:50:25;;;;;;;9.25;3.20;;;14.90;75.10;;;;;;5096881;28;20528;-71
2021/06/13 00:52:51;;;;;;;11.88;3.28;;;14.90;75.30;;;;;;5098767;28;20115;-71
2021/06/13 00:55:17;;;;;;;12.93;2.75;;;14.90;75.10;;;;;;5097834;28;20034;-70
2021/06/13 00:57:42;;;;;;;9.18;3.08;;;14.90;75.20;;;;;;5097715;28;20038;-71
2021/06/13 01:00:09;;;;;;;9.52;3.60;;;15.00;75.10;;;;;;5099560;28;20261;-70
2021/06/13 01:02:35;;;;;;;12.07;3.50;;;15.00;74.80;;;;;;5097760;28;20048;-71
2021/06/13 01:05:01;;;;;;;16.40;4.00;;;15.00;74.40;;;;;;5094370;28;20081;-71
2021/06/13 01:07:44;;;;;;;10.38;3.58;;;14.90;74.80;;;;;;5097277;28;20085;-71
2021/06/13 01:10:49;;;;;;;10.93;3.38;;;15.00;74.80;;;;;;5101320;28;20043;-70
2021/06/13 01:13:23;;;;;;;10.13;3.10;;;14.90;74.70;;;;;;5074473;28;20047;-71
2021/06/13 01:16:02;;;;;;;9.82;3.95;;;14.90;74.60;;;;;;5099997;28;20027;-70
2021/06/13 01:18:36;;;;;;;8.63;2.72;;;14.90;74.60;;;;;;5100229;28;20060;-71
2021/06/13 01:21:08;;;;;;;8.45;3.20;;;14.90;74.80;;;;;;5097055;28;20496;-72
2021/06/13 01:23:46;;;;;;;10.10;3.75;;;14.90;74.90;;;;;;5098095;28;20032;-70
2021/06/13 01:26:30;;;;;;;10.23;3.42;;;14.90;75.00;;;;;;5102263;28;20027;-71
2021/06/13 01:29:00;;;;;;;8.95;2.95;;;15.00;75.40;;;;;;5104328;28;20123;-71
2021/06/13 01:31:39;;;;;;;10.98;3.20;;;15.00;75.30;;;;;;5097547;28;20055;-71
2021/06/13 01:34:10;;;;;;;10.85;3.47;;;15.00;75.30;;;;;;5102178;28;20055;-70
2021/06/13 01:36:36;;;;;;;;;;;15.00;75.60;;;;;;5101794;28;20149;-71
2021/06/13 01:39:09;;;;;;;13.80;3.55;;;15.00;76.10;;;;;;5104529;28;19919;-71
2021/06/13 01:41:36;;;;;;;10.55;3.33;;;15.00;76.30;;;;;;5103228;28;20274;-70
2021/06/13 01:44:04;;;;;;;17.65;4.03;;;15.00;76.70;;;;;;5100443;28;20486;-72
2021/06/13 01:46:33;;;;;;;11.70;4.00;;;14.90;76.90;;;;;;5102173;28;20519;-71
2021/06/13 01:49:01;;;;;;;13.52;4.03;;;14.90;77.00;;;;;;5101186;28;20028;-70
2021/06/13 01:51:27;;;;;;;16.75;3.58;;;14.90;77.00;;;;;;5100704;28;20036;-70
2021/06/13 01:53:52;;;;;;;10.98;3.40;;;14.80;77.00;;;;;;5101010;28;20028;-71
2021/06/13 01:56:19;;;;;;;11.93;3.95;;;14.70;77.10;;;;;;5101138;28;20027;-71
2021/06/13 01:58:47;;;;;;;15.25;3.55;;;14.70;77.30;;;;;;5101008;28;20107;-70
2021/06/13 02:01:16;;;;;;;10.45;3.72;;;14.70;77.30;;;;;;5099991;28;20452;-71
2021/06/13 02:03:47;;;;;;;10.25;3.45;;;14.70;77.50;;;;;;5100308;28;20020;-70
2021/06/13 02:06:14;;;;;;;6.82;2.95;;;14.60;77.60;;;;;;5100958;28;20023;-70
2021/06/13 02:08:41;;;;;;;13.02;3.88;;;14.60;77.40;;;;;;5102535;28;20062;-70
2021/06/13 02:11:09;;;;;;;16.98;4.07;;;14.60;77.90;;;;;;5102879;28;20031;-70
2021/06/13 02:13:37;;;;;;;10.35;3.25;;;14.60;78.20;;;;;;5103064;28;20020;-71
2021/06/13 02:16:04;;;;;;;14.00;3.90;;;14.60;78.20;;;;;;5101188;28;20111;-71
2021/06/13 02:18:30;;;;;;;10.80;4.15;;;14.60;78.60;;;;;;5100521;28;20024;-70
2021/06/13 02:21:00;;;;;;;10.85;3.75;;;14.60;78.40;;;;;;5102608;28;20036;-70
2021/06/13 02:23:28;;;;;;;9.90;3.88;;;14.60;78.30;;;;;;5099508;28;20032;-70
2021/06/13 02:25:54;;;;;;;13.63;3.13;;;14.60;78.50;;;;;;5102300;28;20410;-70
2021/06/13 02:28:23;;;;;;;10.43;3.28;;;14.60;78.50;;;;;;5100477;28;20070;-70
2021/06/13 02:30:51;;;;;;;12.38;3.97;;;14.60;78.50;;;;;;5101625;28;20023;-70
2021/06/13 02:33:17;;;;;;;11.25;3.67;;;14.60;78.50;;;;;;5102683;28;20032;-70
2021/06/13 02:35:47;;;;;;;10.35;3.83;;;14.60;78.50;;;;;;5098572;28;20043;-70
2021/06/13 02:38:14;;;;;;;15.45;3.42;;;14.60;77.90;;;;;;5100556;28;20102;-70
2021/06/13 02:40:40;;;;;;;9.43;2.72;;;14.50;77.50;;;;;;5101266;28;20019;-71
2021/06/13 02:43:05;;;;;;;10.52;2.67;;;14.60;77.20;;;;;;5084274;28;20046;-71
2021/06/13 02:45:31;;;;;;;11.77;3.40;;;14.60;77.10;;;;;;5102554;28;20071;-70
2021/06/13 02:47:57;;;;;;;12.35;3.67;;;14.50;76.70;;;;;;5101819;28;20031;-71
2021/06/13 02:50:24;;;;;;;12.00;3.08;;;14.50;76.60;;;;;;5100266;28;20490;-70
2021/06/13 02:53:14;;;;;;;11.05;3.30;;;14.60;76.60;;;;;;5100466;28;20040;-71
2021/06/13 02:56:11;;;;;;;8.18;2.67;;;14.60;76.60;;;;;;5098442;28;20070;-70
2021/06/13 02:58:43;;;;;;;9.43;3.17;;;14.60;76.60;;;;;;5098914;28;20073;-70
2021/06/13 03:01:13;;;;;;;12.63;3.60;;;14.60;77.00;;;;;;5099779;28;20024;-71
2021/06/13 03:03:41;;;;;;;8.85;3.38;;;14.60;76.60;;;;;;5100350;28;20031;-71
2021/06/13 03:06:13;;;;;;;6.60;3.03;;;14.60;76.70;;;;;;5080574;28;20071;-71
2021/06/13 03:08:39;;;;;;;8.70;3.20;;;14.70;76.90;;;;;;5100491;28;20032;-71
2021/06/13 03:11:06;;;;;;;9.43;3.10;;;14.70;77.20;;;;;;5098181;28;20119;-70
2021/06/13 03:13:32;;;;;;;10.48;3.28;;;14.70;77.40;;;;;;5099340;28;20467;-70
2021/06/13 03:16:00;;;;;;;13.07;3.17;;;14.70;77.50;;;;;;5099078;28;20534;-70
2021/06/13 03:18:28;;;;;;;10.88;3.53;;;14.70;77.70;;;;;;5098712;28;20367;-71
2021/06/13 03:20:56;;;;;;;12.38;3.53;;;14.70;77.80;;;;;;5089743;28;20118;-70
2021/06/13 03:23:23;;;;;;;12.25;3.90;;;14.70;77.90;;;;;;5100081;28;20024;-70
2021/06/13 03:25:51;;;;;;;12.23;3.60;;;14.70;78.10;;;;;;5097927;28;20032;-70
2021/06/13 03:28:18;;;;;;;11.05;3.53;;;14.70;78.10;;;;;;5098842;28;20028;-70
2021/06/13 03:30:45;;;;;;;13.80;3.53;;;14.70;78.10;;;;;;5102267;28;20043;-70
2021/06/13 03:33:12;;;;;;;15.93;4.28;;;14.70;78.20;;;;;;5099372;28;20028;-71
2021/06/13 03:35:39;;;;;;;10.55;3.65;;;14.70;78.10;;;;;;5100646;28;20020;-70
2021/06/13 03:38:05;;;;;;;10.77;3.47;;;14.70;78.10;;;;;;5098007;28;20115;-70
2021/06/13 03:40:31;;;;;;;9.15;3.22;;;14.70;78.00;;;;;;5081638;28;20031;-70
2021/06/13 03:42:57;;;;;;;14.35;3.28;;;14.70;78.00;;;;;;5100854;28;20421;-70
2021/06/13 03:45:25;;;;;;;12.20;3.58;;;14.70;78.20;;;;;;5097398;28;20028;-71
2021/06/13 03:47:52;;;;;;;9.30;3.47;;;14.70;78.10;;;;;;5097074;28;20027;-70
2021/06/13 03:50:19;;;;;;;12.25;3.95;;;14.70;78.00;;;;;;5098766;28;20031;-70
2021/06/13 03:52:45;;;;;;;22.85;4.18;;;14.70;78.10;;;;;;5100121;28;20026;-69
2021/06/13 03:55:11;;;;;;;18.48;3.78;;;14.70;78.20;;;;;;5098624;28;20572;-71
2021/06/13 03:57:41;;;;;;;7.53;3.00;;;14.70;78.30;;;;;;5078854;28;20020;-70
2021/06/13 04:00:09;;;;;;;12.02;3.88;;;14.70;78.20;;;;;;5097191;28;20562;-71
2021/06/13 04:02:42;;;;;;;10.93;3.53;;;14.60;78.40;;;;;;5065315;28;20027;-70
2021/06/13 04:05:10;;;;;;;13.55;3.88;;;14.60;78.60;;;;;;5097736;28;20027;-71
2021/06/13 04:07:41;;;;;;;8.90;3.40;;;14.60;78.60;;;;;;5098896;28;20108;-71
2021/06/13 04:10:07;;;;;;;10.68;3.13;;;14.60;78.60;;;;;;5096039;28;20034;-72
2021/06/13 04:12:33;;;;;;;12.93;3.60;;;14.60;78.80;;;;;;5100830;28;20115;-70
2021/06/13 04:15:00;;;;;;;10.20;3.30;;;14.70;78.90;;;;;;5100893;28;20053;-71
2021/06/13 04:17:26;;;;;;;12.05;3.20;;;14.60;78.70;;;;;;5082794;28;20065;-70
2021/06/13 04:19:53;;;;;;;14.50;3.53;;;14.70;78.90;;;;;;5099967;28;20027;-70
2021/06/13 04:22:21;;;;;;;16.02;3.97;;;14.70;79.00;;;;;;5103807;28;20016;-70
2021/06/13 04:24:51;;;;;;;14.95;3.42;;;14.70;79.10;;;;;;5100440;28;20024;-70
2021/06/13 04:27:26;;;;;;;12.95;3.15;;;14.70;79.10;;;;;;5099872;28;20035;-70
2021/06/13 04:29:51;;;;;;;11.40;3.55;;;14.70;79.10;;;;;;5099989;28;20142;-70
2021/06/13 04:32:18;;;;;;;12.77;3.47;;;14.70;79.20;;;;;;5098061;28;20497;-71
2021/06/13 04:34:44;;;;;;;11.20;3.75;;;14.80;79.20;;;;;;5096812;28;20115;-71
2021/06/13 04:37:10;;;;;;;18.75;4.07;;;14.80;79.30;;;;;;5097746;28;20036;-70
2021/06/13 04:39:37;;;;;;;15.00;3.67;;;14.80;79.50;;;;;;5098683;28;20056;-70
2021/06/13 04:42:06;;;;;;;8.85;3.35;;;14.70;79.50;;;;;;5079990;28;20073;-71
2021/06/13 04:44:32;;;;;;;14.75;3.85;;;14.80;79.60;;;;;;5097725;28;20118;-70
2021/06/13 04:46:58;;;;;;;12.30;3.20;;;14.80;79.70;;;;;;5096790;28;20039;-71
2021/06/13 04:49:23;;;;;;;13.20;4.07;;;14.70;79.80;;;;;;5096155;28;20410;-70
2021/06/13 04:51:57;;;;;;;18.05;3.83;;;14.70;79.80;;;;;;5099960;28;20032;-71
2021/06/13 04:54:33;;;;;;;10.05;3.70;;;14.80;79.80;;;;;;5098518;28;20028;-70
2021/06/13 04:57:17;;;;;;;13.98;4.43;;;14.80;79.90;;;;;;5094659;28;20398;-71
2021/06/13 04:59:42;;;;;;;13.65;3.58;;;14.80;79.80;;;;;;5102142;28;20415;-71
2021/06/13 05:02:08;;;;;;;15.18;3.75;;;14.90;80.80;;;;;;5100597;28;20040;-71
2021/06/13 05:04:34;;;;;;;16.58;4.00;;;15.00;79.90;;;;;;5100059;28;20131;-71
2021/06/13 05:07:03;;;;;;;14.02;3.72;;;15.10;79.00;;;;;;5099212;28;20039;-71
2021/06/13 05:09:32;;;;;;;11.90;3.17;;;15.10;79.70;;;;;;5103864;28;20024;-70
2021/06/13 05:11:58;;;;;;;11.82;3.38;;;15.20;79.20;;;;;;5103531;28;20031;-70
2021/06/13 05:14:24;;;;;;;12.85;3.67;;;15.40;78.40;;;;;;5103511;28;20089;-71
2021/06/13 05:16:50;;;;;;;16.48;4.00;;;15.40;78.20;;;;;;5068346;28;20038;-71
2021/06/13 05:19:15;;;;;;;11.65;3.67;;;15.30;78.10;;;;;;5083204;28;20110;-70
2021/06/13 05:21:41;;;;;;;16.50;4.32;;;15.30;78.50;;;;;;5082085;28;20050;-70
2021/06/13 05:24:08;;;;;;;13.45;4.55;;;15.20;78.20;;;;;;5102230;28;20473;-70
2021/06/13 05:26:34;;;;;;;12.20;3.25;;;15.10;78.30;;;;;;5102025;28;20047;-71
2021/06/13 05:29:00;;;;;;;8.82;3.70;;;15.10;78.50;;;;;;5103689;28;20032;-70
2021/06/13 05:31:26;;;;;;;10.32;3.72;;;15.10;78.50;;;;;;5084483;28;20020;-70
2021/06/13 05:33:52;;;;;;;10.82;3.65;;;15.10;78.40;;;;;;5101539;28;20039;-71
2021/06/13 05:36:18;;;;;;;11.07;3.63;;;15.10;78.30;;;;;;5102201;28;20042;-71
2021/06/13 05:38:44;;;;;;;14.35;4.13;;;15.10;78.20;;;;;;5101038;28;20028;-70
2021/06/13 05:41:12;;;;;;;14.43;4.15;;;15.10;77.80;;;;;;5102036;28;20485;-70
2021/06/13 05:43:38;;;;;;;12.45;4.65;;;15.10;77.80;;;;;;5102972;28;20120;-71
2021/06/13 05:46:04;;;;;;;14.15;4.07;;;15.10;77.50;;;;;;5101883;28;20052;-70
2021/06/13 05:48:32;;;;;;;13.05;4.43;;;15.10;77.40;;;;;;5101611;28;20024;-70
2021/06/13 05:50:59;;;;;;;12.02;4.63;;;15.10;76.80;;;;;;5101488;28;20039;-71
2021/06/13 05:53:25;;;;;;;12.23;4.57;;;15.10;76.70;;;;;;5102039;28;20032;-71
2021/06/13 05:55:50;;;;;;;11.98;4.35;;;15.10;76.80;;;;;;5103401;28;20024;-70
2021/06/13 05:58:16;;;;;;;10.52;3.72;;;15.10;76.50;;;;;;5101878;28;20481;-70
2021/06/13 06:00:42;;;;;;;8.27;3.72;;;15.10;76.40;;;;;;5100316;28;20032;-71
2021/06/13 06:03:07;;;;;;;13.02;4.10;;;15.10;76.60;;;;;;5099533;28;20028;-71
2021/06/13 06:05:34;;;;;;;14.13;3.97;;;15.10;76.40;;;;;;5095917;28;20028;-69
2021/06/13 06:08:00;;;;;;;10.05;4.03;;;15.20;75.70;;;;;;5097160;28;20028;-69
2021/06/13 06:10:27;;;;;;;9.75;3.25;;;15.20;75.80;;;;;;5097920;28;20510;-69
2021/06/13 06:12:54;;;;;;;10.95;3.88;;;15.20;75.80;;;;;;5099281;28;20031;-69
2021/06/13 06:15:21;;;;;;;9.90;4.18;;;15.30;75.90;;;;;;5100543;28;20024;-69
2021/06/13 06:17:47;;;;;;;13.55;4.10;;;15.30;75.70;;;;;;5100512;28;20031;-72
2021/06/13 06:20:16;;;;;;;11.00;3.67;;;15.30;74.90;;;;;;5080777;28;20020;-71
2021/06/13 06:22:42;;;;;;;10.25;3.92;;;15.40;75.30;;;;;;5092731;28;20024;-72
2021/06/13 06:25:09;;;;;;;9.63;3.90;;;15.50;74.80;;;;;;5077891;28;20093;-72
2021/06/13 06:27:35;;;;;;;12.95;3.97;;;15.50;74.40;;;;;;5088300;28;20036;-71
2021/06/13 06:30:02;;;;;;;11.77;3.92;;;15.40;74.10;;;;;;5100004;28;20042;-69
2021/06/13 06:32:27;;;;;;;11.30;3.92;;;15.40;74.30;;;;;;5099235;28;20027;-70
2021/06/13 06:34:53;;;;;;;9.10;3.33;;;15.40;74.30;;;;;;5078521;28;20583;-70
2021/06/13 06:37:19;;;;;;;11.85;4.10;;;15.40;74.50;;;;;;5101113;28;20020;-69
2021/06/13 06:39:44;;;;;;;7.68;3.38;;;15.40;74.50;;;;;;5101719;28;20557;-69
2021/06/13 06:42:10;;;;;;;14.73;4.22;;;15.50;74.70;;;;;;5099623;28;20028;-69
2021/06/13 06:44:36;;;;;;;10.48;4.00;;;15.60;74.50;;;;;;5098766;28;20105;-69
2021/06/13 06:47:02;;;;;;;10.32;3.65;;;15.70;74.40;;;;;;5100502;28;20115;-69
2021/06/13 06:49:29;;;;;;;9.00;3.47;;;15.80;74.10;;;;;;5100411;28;20047;-69
2021/06/13 06:51:55;;;;;;;10.15;3.53;;;15.80;73.80;;;;;;5101081;28;20505;-69
2021/06/13 06:54:21;;;;;;;12.25;3.70;;;15.80;74.10;;;;;;5083199;28;20485;-70
2021/06/13 06:56:47;;;;;;;14.70;3.92;;;15.80;74.40;;;;;;5098382;28;20024;-69
2021/06/13 06:59:13;;;;;;;11.13;3.40;;;15.80;74.20;;;;;;5102078;28;20500;-68
2021/06/13 07:01:39;;;;;;;12.40;4.10;;;15.80;74.70;;;;;;5073297;28;20060;-70
2021/06/13 07:04:05;;;;;;;7.75;3.38;;;15.80;74.50;;;;;;5098557;28;20040;-69
2021/06/13 07:06:32;;;;;;;14.10;3.88;;;15.80;74.10;;;;;;5096576;28;20381;-69
2021/06/13 07:08:57;;;;;;;7.70;3.30;;;15.80;73.70;;;;;;5100103;28;20545;-70
2021/06/13 07:11:23;;;;;;;12.57;3.70;;;15.80;74.00;;;;;;5102413;28;20122;-69
2021/06/13 07:13:49;;;;;;;18.70;4.10;;;15.90;74.20;;;;;;5099332;28;20050;-70
2021/06/13 07:16:15;;;;;;;9.57;3.30;;;15.90;73.70;;;;;;5099289;28;20026;-69
2021/06/13 07:18:41;;;;;;;11.20;3.58;;;16.00;74.40;;;;;;5098127;28;20024;-70
2021/06/13 07:21:07;;;;;;;9.73;3.85;;;16.00;74.20;;;;;;5090506;28;20024;-72
2021/06/13 07:23:33;;;;;;;10.48;3.58;;;16.00;74.10;;;;;;5092999;28;20024;-70
2021/06/13 07:25:59;;;;;;;9.10;3.60;;;16.00;74.00;;;;;;5091489;28;20493;-71
2021/06/13 07:28:29;;;;;;;14.27;4.13;;;16.00;74.20;;;;;;5090484;28;20031;-71
2021/06/13 07:30:56;;;;;;;11.70;3.78;;;16.00;74.50;;;;;;5093996;28;20021;-71
2021/06/13 07:33:24;;;;;;;11.30;3.60;;;16.00;74.60;;;;;;5095813;28;20043;-72
2021/06/13 07:35:51;;;;;;;13.38;3.88;;;16.10;74.60;;;;;;5091409;28;20049;-71
2021/06/13 07:38:16;;;;;;;14.00;4.28;;;16.10;74.10;;;;;;5100475;28;20016;-71
2021/06/13 07:40:42;;;;;;;14.52;4.10;;;16.10;74.30;;;;;;5081333;28;20394;-71
2021/06/13 07:43:08;;;;;;;7.50;3.58;;;16.10;74.10;;;;;;5080621;28;20495;-70
2021/06/13 07:45:34;;;;;;;10.55;3.13;;;16.10;74.10;;;;;;5097547;28;20047;-71
2021/06/13 07:48:00;;;;;;;11.77;3.53;;;16.20;73.90;;;;;;5082017;28;20462;-70
2021/06/13 07:50:26;;;;;;;8.25;3.05;;;16.30;73.40;;;;;;5076125;28;20065;-69
2021/06/13 07:52:51;;;;;;;12.02;3.33;;;16.40;72.30;;;;;;5101568;28;20024;-71
2021/06/13 07:55:19;;;;;;;10.52;3.88;;;16.50;71.70;;;;;;5099949;28;20023;-69
2021/06/13 07:57:46;;;;;;;10.85;3.65;;;16.50;71.80;;;;;;5099386;28;20055;-71
2021/06/13 08:00:14;;;;;;;14.55;4.38;;;16.50;71.90;;;;;;5094568;28;20024;-72
2021/06/13 08:02:40;;;;;;;11.55;3.95;;;16.40;71.90;;;;;;5066387;28;20032;-72
2021/06/13 08:05:11;;;;;;;13.05;4.40;;;16.30;72.40;;;;;;5089042;28;20084;-72
2021/06/13 08:07:37;;;;;;;9.98;3.25;;;16.20;72.50;;;;;;5084410;28;20149;-71
2021/06/13 08:10:05;;;;;;;9.68;3.63;;;16.20;73.20;;;;;;5093845;28;20545;-70
2021/06/13 08:12:32;;;;;;;15.40;4.40;;;16.20;72.50;;;;;;5096106;28;20036;-71
2021/06/13 08:14:58;;;;;;;8.95;4.10;;;16.10;72.50;;;;;;5088901;28;20027;-72
2021/06/13 08:17:26;;;;;;;14.40;4.35;;;16.10;73.20;;;;;;5083043;28;20401;-72
2021/06/13 08:19:52;;;;;;;9.05;3.40;;;16.20;72.90;;;;;;5068454;28;20031;-71
2021/06/13 08:22:19;;;;;;;10.07;3.65;;;16.50;72.80;;;;;;5090844;28;20546;-72
2021/06/13 08:24:44;;;;;;;12.68;4.38;;;16.70;72.40;;;;;;5069665;28;20046;-70
2021/06/13 08:27:10;;;;;;;7.82;3.88;;;16.80;71.70;;;;;;5094849;28;20094;-70
2021/06/13 08:29:36;;;;;;;11.98;3.88;;;16.80;71.50;;;;;;5089940;28;20035;-70
2021/06/13 08:32:02;;;;;;;10.90;3.65;;;16.80;71.70;;;;;;5092588;28;20551;-72
2021/06/13 08:34:31;;;;;;;9.60;3.75;;;16.80;71.80;;;;;;5086117;28;20024;-71
2021/06/13 08:36:56;;;;;;;12.40;4.00;;;16.80;72.20;;;;;;5094026;28;20039;-70
2021/06/13 08:39:22;;;;;;;13.82;4.05;;;16.70;72.00;;;;;;5097487;28;20020;-70
2021/06/13 08:41:48;;;;;;;14.27;4.65;;;16.70;72.30;;;;;;5099738;28;20078;-76
2021/06/13 08:44:13;;;;;;;8.88;4.03;;;16.60;72.80;;;;;;5098464;28;20034;-71
2021/06/13 08:46:41;;;;;;;11.13;4.32;;;16.70;73.20;;;;;;5104565;28;20035;-74
2021/06/13 08:49:07;;;;;;;9.07;3.90;;;16.80;73.40;;;;;;5092828;28;20028;-73
2021/06/13 08:51:34;;;;;;;12.05;4.68;;;16.80;72.80;;;;;;5061841;28;20808;-71
2021/06/13 08:54:00;;;;;;;9.93;4.00;;;16.80;73.10;;;;;;5080731;28;20031;-76
2021/06/13 08:56:26;;;;;;;11.50;5.00;;;16.70;73.20;;;;;;5054729;28;20024;-70
2021/06/13 08:58:55;;;;;;;15.02;5.13;;;16.60;73.90;;;;;;5065099;28;20035;-70
2021/06/13 09:01:21;;;;;;;13.32;4.40;;;16.50;73.80;;;;;;5067062;28;20092;-70
2021/06/13 09:03:47;;;;;;;12.70;4.65;;;16.50;73.80;;;;;;5078272;28;20032;-70
2021/06/13 09:06:13;;;;;;;11.32;4.75;;;16.50;73.70;;;;;;5089573;28;20047;-70
2021/06/13 09:08:43;;;;;;;16.83;5.68;;;16.60;73.90;;;;;;5089530;28;20027;-68
2021/06/13 09:11:32;;;;;;;13.05;4.93;;;16.70;73.60;;;;;;5099512;28;20378;-69
2021/06/13 09:14:12;;;;;;;11.43;4.43;;;16.80;73.30;;;;;;5097436;28;20027;-71
2021/06/13 09:16:47;;;;;;;17.90;5.90;;;16.70;73.40;;;;;;5100262;28;20032;-68
2021/06/13 09:19:14;;;;;;;13.43;5.05;;;16.70;73.40;;;;;;5101096;28;20056;-69
2021/06/13 09:21:42;;;;;;;12.93;5.15;;;16.80;72.80;;;;;;5083898;28;20024;-70
2021/06/13 09:24:20;;;;;;;11.80;5.57;;;16.80;72.40;;;;;;5078737;28;20043;-69
2021/06/13 09:26:47;;;;;;;14.02;4.57;;;16.80;71.50;;;;;;5107155;28;20070;-69
2021/06/13 09:29:14;;;;;;;14.15;4.93;;;16.90;71.50;;;;;;5085719;28;20459;-69
2021/06/13 09:31:39;;;;;;;13.95;4.88;;;16.90;70.80;;;;;;5101358;28;20697;-71
2021/06/13 09:34:12;;;;;;;10.82;4.70;;;16.90;70.70;;;;;;5094970;28;20034;-70
2021/06/13 09:36:38;;;;;;;11.05;4.55;;;16.90;70.40;;;;;;5094471;28;20023;-69
2021/06/13 09:39:12;;;;;;;16.77;4.60;;;16.80;70.00;;;;;;5100693;28;20081;-70
2021/06/13 09:41:40;;;;;;;8.15;3.88;;;16.90;69.90;;;;;;5102752;28;20043;-70
2021/06/13 09:44:09;;;;;;;12.30;4.28;;;17.00;70.40;;;;;;5101649;28;20389;-71
2021/06/13 09:46:38;;;;;;;13.10;4.70;;;17.20;70.40;;;;;;5100738;28;20024;-71
2021/06/13 09:49:07;;;;;;;9.07;4.10;;;17.30;68.70;;;;;;5099755;28;20401;-69
2021/06/13 09:51:36;;;;;;;11.43;4.53;;;17.30;68.40;;;;;;5099599;28;20031;-71
2021/06/13 09:54:07;;;;;;;11.48;4.05;;;17.40;68.40;;;;;;5098452;28;20521;-71
2021/06/13 09:56:37;;;;;;;11.80;4.57;;;17.40;67.60;;;;;;5101833;28;20043;-70
2021/06/13 09:59:34;;;;;;;11.65;3.70;;;17.40;67.30;;;;;;5098091;28;20024;-71
2021/06/13 10:02:02;;;;;;;7.70;3.83;;;17.40;67.10;;;;;;5099369;28;20386;-70
2021/06/13 10:04:31;;;;;;;12.40;4.70;;;17.40;67.10;;;;;;5100487;28;20074;-70
2021/06/13 10:07:01;;;;;;;12.25;4.55;;;17.40;67.30;;;;;;5098836;28;20122;-70
2021/06/13 10:09:39;;;;;;;10.63;4.65;;;17.50;67.40;;;;;;5099001;28;20028;-70
2021/06/13 10:12:10;;;;;;;8.48;3.97;;;17.70;67.10;;;;;;5101642;28;20435;-71
2021/06/13 10:14:36;;;;;;;;;;;17.80;66.60;;;;;;5100604;28;20078;-71
2021/06/13 10:17:02;;;;;;;9.63;4.32;;;17.80;66.50;;;;;;5098426;28;19908;-72
2021/06/13 10:19:48;;;;;;;14.35;4.82;;;17.80;66.80;;;;;;5096852;28;20024;-71
2021/06/13 10:22:16;;;;;;;12.73;4.10;;;17.90;65.90;;;;;;5100287;28;20055;-71
2021/06/13 10:24:44;;;;;;;12.20;4.28;;;17.90;65.70;;;;;;5104096;28;20043;-69
2021/06/13 10:27:13;;;;;;;9.38;3.65;;;17.90;64.90;;;;;;5097321;28;20023;-71
2021/06/13 10:29:41;;;;;;;10.80;4.00;;;17.90;65.70;;;;;;5095869;28;20030;-70
2021/06/13 10:32:09;;;;;;;10.45;4.15;;;18.00;65.40;;;;;;5100244;28;20028;-69
2021/06/13 10:34:35;;;;;;;11.20;4.78;;;18.00;65.30;;;;;;5095979;28;20031;-69
2021/06/13 10:37:04;;;;;;;11.45;4.43;;;18.10;64.50;;;;;;5098206;28;20024;-70
2021/06/13 10:39:32;;;;;;;12.43;4.63;;;18.10;64.20;;;;;;5100124;28;20023;-72
2021/06/13 10:41:58;;;;;;;10.52;4.03;;;18.10;65.10;;;;;;5098971;28;20028;-71
2021/06/13 10:44:27;;;;;;;14.30;4.32;;;18.20;65.30;;;;;;5080450;28;20081;-68
2021/06/13 10:47:11;;;;;;;9.27;4.53;;;18.20;64.20;;;;;;5100274;28;20034;-69
2021/06/13 10:49:40;;;;;;;11.32;4.63;;;18.30;64.40;;;;;;5099028;28;20020;-69
2021/06/13 10:52:08;;;;;;;11.20;4.50;;;18.40;64.70;;;;;;5098371;28;20741;-69
2021/06/13 10:54:50;;;;;;;8.02;3.80;;;18.50;64.40;;;;;;5098868;28;20028;-69
2021/06/13 10:57:15;;;;;;;;;;;18.50;64.20;;;;;;5100506;28;20030;-70
2021/06/13 10:59:49;;;;;;;12.63;4.60;;;18.50;63.50;;;;;;5098766;28;19908;-70
2021/06/13 11:02:19;;;;;;;10.93;4.47;;;18.60;62.80;;;;;;5098717;28;20377;-69
2021/06/13 11:05:01;;;;;;;10.20;4.25;;;18.50;62.60;;;;;;5097345;28;20036;-69
2021/06/13 11:07:30;;;;;;;12.63;5.30;;;18.40;62.60;;;;;;5098022;28;20039;-70
2021/06/13 11:12:49;;;;;;;6.70;3.53;;;18.50;63.70;;;;;;5100822;28;20028;-70
2021/06/13 11:15:22;;;;;;;11.73;4.15;;;18.70;63.70;;;;;;5100270;27;20035;-70
2021/06/13 11:18:04;;;;;;;9.80;3.70;;;18.80;62.90;;;;;;5075875;28;20477;-71
2021/06/13 11:23:06;;;;;;;8.73;3.30;;;18.90;61.70;;;;;;5097704;28;20023;-71
2021/06/13 11:25:35;;;;;;;11.60;4.13;;;19.30;62.60;;;;;;5099320;28;20036;-70
2021/06/13 11:28:09;;;;;;;8.65;3.92;;;20.10;60.80;;;;;;5097891;28;20032;-69
2021/06/13 11:30:39;;;;;;;11.55;4.60;;;20.30;58.50;;;;;;5096379;28;20032;-70
2021/06/13 11:33:05;;;;;;;7.85;3.47;;;20.50;57.00;;;;;;5094872;28;20031;-70
2021/06/13 11:35:34;;;;;;;8.50;3.40;;;21.10;57.20;;;;;;5096826;28;20032;-70
2021/06/13 11:38:09;;;;;;;6.63;3.33;;;22.50;53.50;;;;;;5097787;28;20027;-71
2021/06/13 11:40:36;;;;;;;12.38;4.25;;;24.10;48.60;;;;;;5099003;28;20023;-71
2021/06/13 11:43:41;;;;;;;6.38;3.28;;;25.40;45.80;;;;;;5098079;28;20502;-71
2021/06/13 11:46:10;;;;;;;8.07;4.55;;;25.80;41.60;;;;;;5097777;28;20374;-71
2021/06/13 11:48:37;;;;;;;8.00;3.72;;;24.90;43.40;;;;;;5099145;28;20036;-70
2021/06/13 11:51:15;;;;;;;7.47;3.67;;;23.80;45.80;;;;;;5095150;28;20032;-71
2021/06/13 11:54:02;;;;;;;7.32;3.42;;;23.90;46.50;;;;;;5098689;28;20024;-70
2021/06/13 11:56:35;;;;;;;8.05;3.80;;;24.10;46.80;;;;;;5098709;28;20493;-71
2021/06/13 11:59:03;;;;;;;8.18;3.40;;;25.00;45.60;;;;;;5097450;28;20024;-71
2021/06/13 12:01:32;;;;;;;9.43;3.65;;;25.40;43.00;;;;;;5100310;28;20024;-70
2021/06/13 12:03:59;;;;;;;9.40;3.63;;;25.20;42.60;;;;;;5093884;28;20032;-71
2021/06/13 12:06:25;;;;;;;8.80;3.97;;;24.80;42.70;;;;;;5078762;28;20031;-70
2021/06/13 12:08:54;;;;;;;9.98;3.33;;;24.20;44.00;;;;;;5098142;28;20034;-71
2021/06/13 12:11:34;;;;;;;7.53;2.83;;;23.70;45.10;;;;;;5096550;28;20040;-70
2021/06/13 12:14:18;;;;;;;7.75;3.22;;;23.60;46.40;;;;;;5097871;28;20028;-70
2021/06/13 12:16:44;;;;;;;9.05;3.83;;;23.10;46.50;;;;;;5097467;28;20024;-70
2021/06/13 12:19:11;;;;;;;8.15;3.35;;;23.00;47.90;;;;;;5098499;28;20787;-69
2021/06/13 12:21:37;;;;;;;7.25;3.22;;;23.40;46.30;;;;;;5096312;28;20023;-70
2021/06/13 12:24:14;;;;;;;7.38;3.30;;;23.60;47.20;;;;;;5100074;28;20059;-71
2021/06/13 12:29:28;;;;;;;7.18;2.83;;;24.60;45.40;;;;;;5096362;28;20023;-71
2021/06/13 12:32:09;;;;;;;6.82;3.17;;;24.70;44.00;;;;;;5097464;28;20024;-71
2021/06/13 12:34:39;;;;;;;8.80;4.05;;;24.40;43.50;;;;;;5095874;28;20031;-71
2021/06/13 12:37:06;;;;;;;6.47;3.45;;;24.30;44.80;;;;;;5096973;28;20099;-71
2021/06/13 12:39:36;;;;;;;6.53;3.00;;;24.70;45.40;;;;;;5098908;28;20095;-71
2021/06/13 12:42:12;;;;;;;5.63;3.13;;;25.00;43.90;;;;;;5099031;28;20030;-71
2021/06/13 12:44:40;;;;;;;5.30;2.83;;;25.30;43.40;;;;;;5094680;28;20089;-71
2021/06/13 12:47:09;;;;;;;7.00;3.00;;;25.50;43.60;;;;;;5095482;28;20028;-71
2021/06/13 12:49:39;;;;;;;6.07;3.00;;;25.90;42.50;;;;;;5095594;28;20034;-71
2021/06/13 12:52:13;;;;;;;5.85;3.33;;;26.20;42.10;;;;;;5098511;28;20117;-71
2021/06/13 12:54:40;;;;;;;6.72;3.35;;;26.50;40.90;;;;;;5096125;28;20027;-71
2021/06/13 12:57:06;;;;;;;6.28;3.25;;;26.20;40.90;;;;;;5098710;28;20099;-71